createdAt,value
2024-01-16T00:01:13.979Z,97602.16
2024-01-16T00:03:41.270Z,97608.09
2024-01-16T00:06:08.894Z,97603.84
2024-01-16T00:08:36.248Z,97545.25
2024-01-16T00:11:04.620Z,97600.34
2024-01-16T00:13:33.585Z,97598.63
2024-01-16T00:16:04.021Z,97596.19
2024-01-16T00:18:31.532Z,97594.63
2024-01-16T00:20:58.833Z,97599.72
2024-01-16T00:23:26.307Z,97560.19
2024-01-16T00:25:53.508Z,97595.31
2024-01-16T00:28:21.148Z,97581.56
2024-01-16T00:30:48.500Z,97591.81
2024-01-16T00:33:15.837Z,97578.13
2024-01-16T00:35:43.368Z,97594.53
2024-01-16T00:38:10.687Z,97586.06
2024-01-16T00:40:37.933Z,97585.16
2024-01-16T00:43:05.583Z,97593.78
2024-01-16T00:45:32.845Z,97600.69
2024-01-16T00:48:00.397Z,97609.22
2024-01-16T00:50:28.083Z,97601.53
2024-01-16T00:52:55.235Z,97586.88
2024-01-16T00:55:22.458Z,97607.59
2024-01-16T00:57:49.619Z,97609.28
2024-01-16T01:00:16.983Z,97597.31
2024-01-16T01:02:45.411Z,97604.09
2024-01-16T01:05:12.750Z,97570.63
2024-01-16T01:07:39.957Z,97599.81
2024-01-16T01:10:07.560Z,97604.09
2024-01-16T01:12:34.736Z,97598.94
2024-01-16T01:15:03.036Z,97609.31
2024-01-16T01:17:31.785Z,97599.91
2024-01-16T01:19:59.011Z,97575.84
2024-01-16T01:22:26.359Z,97594.72
2024-01-16T01:24:53.647Z,97578.53
2024-01-16T01:27:20.903Z,97591.38
2024-01-16T01:29:48.109Z,97575.88
2024-01-16T01:32:15.342Z,97588.72
2024-01-16T01:34:45.298Z,97592.19
2024-01-16T01:37:12.635Z,97588.78
2024-01-16T01:39:39.796Z,97568.25
2024-01-16T01:42:07.032Z,97575.13
2024-01-16T01:44:34.331Z,97582.78
2024-01-16T01:47:01.707Z,97580.97
2024-01-16T01:49:29.223Z,97580.13
2024-01-16T01:51:56.896Z,97581.81
2024-01-16T01:54:26.167Z,97587.78
2024-01-16T01:56:53.761Z,97565.47
2024-01-16T01:59:23.353Z,97583.53
2024-01-16T02:01:54.125Z,97574.16
2024-01-16T02:04:22.916Z,97588.72
2024-01-16T02:06:50.346Z,97588.75
2024-01-16T02:09:17.591Z,97580.91
2024-01-16T02:11:44.877Z,97587.81
2024-01-16T02:14:13.271Z,97572.44
2024-01-16T02:16:42.424Z,97591.31
2024-01-16T02:19:10.105Z,97557.72
2024-01-16T02:21:51.197Z,97581.75
2024-01-16T02:24:20.367Z,97584.25
2024-01-16T02:26:48.456Z,97577.34
2024-01-16T02:29:17.698Z,97581.72
2024-01-16T02:31:45.049Z,97580.03
2024-01-16T02:34:12.433Z,97586.94
2024-01-16T02:36:40.022Z,97585.25
2024-01-16T02:39:07.811Z,97597.81
2024-01-16T02:41:35.210Z,97593.63
2024-01-16T02:44:02.834Z,97579.91
2024-01-16T02:46:30.058Z,97592.91
2024-01-16T02:48:57.406Z,97593.66
2024-01-16T02:51:24.653Z,97597.06
2024-01-16T02:53:51.891Z,97584.16
2024-01-16T02:56:19.355Z,97596.28
2024-01-16T02:58:46.645Z,97596.13
2024-01-16T03:01:15.759Z,97607.22
2024-01-16T03:03:43.127Z,97607.28
2024-01-16T03:06:10.501Z,97608.19
2024-01-16T03:08:37.757Z,97601.41
2024-01-16T03:11:05.205Z,97549.75
2024-01-16T03:13:32.436Z,97598.88
2024-01-16T03:15:59.738Z,97605.59
2024-01-16T03:18:27.635Z,97608.00
2024-01-16T03:20:55.083Z,97604.69
2024-01-16T03:23:22.300Z,97602.16
2024-01-16T03:25:49.491Z,97601.28
2024-01-16T03:28:16.813Z,97603.88
2024-01-16T03:30:44.149Z,97578.97
2024-01-16T03:33:11.616Z,97600.38
2024-01-16T03:35:38.967Z,97599.47
2024-01-16T03:38:06.166Z,97603.84
2024-01-16T03:40:35.650Z,97543.72
2024-01-16T03:43:03.271Z,97607.28
2024-01-16T03:45:30.450Z,97609.06
2024-01-16T03:47:57.877Z,97601.28
2024-01-16T03:50:25.170Z,97606.41
2024-01-16T03:52:52.501Z,97598.00
2024-01-16T03:55:19.786Z,97600.53
2024-01-16T03:57:46.936Z,97601.41
2024-01-16T04:00:15.162Z,97606.53
2024-01-16T04:02:42.328Z,97603.94
2024-01-16T04:05:09.736Z,97597.16
2024-01-16T04:07:37.024Z,97605.66
2024-01-16T04:10:06.523Z,97600.53
2024-01-16T04:12:33.941Z,97596.94
2024-01-16T04:15:01.228Z,97599.50
2024-01-16T04:17:29.870Z,97594.16
2024-01-16T04:19:57.118Z,97592.53
2024-01-16T04:22:24.315Z,97596.72
2024-01-16T04:24:51.605Z,97602.69
2024-01-16T04:27:18.823Z,97598.41
2024-01-16T04:29:46.360Z,97586.38
2024-01-16T04:32:13.636Z,97612.03
2024-01-16T04:34:40.925Z,97605.16
2024-01-16T04:37:08.115Z,97612.88
2024-01-16T04:39:35.358Z,97601.88
2024-01-16T04:42:02.560Z,97607.66
2024-01-16T04:44:30.298Z,97611.13
2024-01-16T04:46:57.703Z,97605.09
2024-01-16T04:49:25.494Z,97597.41
2024-01-16T04:51:52.828Z,97620.47
2024-01-16T04:54:20.007Z,97621.34
2024-01-16T04:56:47.386Z,97610.22
2024-01-16T04:59:16.907Z,97620.56
2024-01-16T05:01:44.294Z,97630.88
2024-01-16T05:04:11.799Z,97627.50
2024-01-16T05:06:39.883Z,97603.53
2024-01-16T05:09:07.119Z,97618.94
2024-01-16T05:11:34.351Z,97637.78
2024-01-16T05:14:01.582Z,97642.03
2024-01-16T05:16:28.950Z,97626.66
2024-01-16T05:18:57.575Z,97612.78
2024-01-16T05:21:24.844Z,97630.00
2024-01-16T05:23:52.308Z,97637.69
2024-01-16T05:26:19.712Z,97637.66
2024-01-16T05:28:46.915Z,97604.09
2024-01-16T05:31:14.100Z,97630.88
2024-01-16T05:33:41.362Z,97621.34
2024-01-16T05:36:09.689Z,97629.91
2024-01-16T05:38:38.979Z,97634.84
2024-01-16T05:41:06.462Z,97625.47
2024-01-16T05:43:33.680Z,97624.63
2024-01-16T05:46:02.056Z,97626.47
2024-01-16T05:48:29.436Z,97612.88
2024-01-16T05:50:56.841Z,97623.22
2024-01-16T05:53:24.110Z,97603.31
2024-01-16T05:55:51.394Z,97599.88
2024-01-16T05:58:18.608Z,97625.75
2024-01-16T06:00:45.940Z,97598.75
2024-01-16T06:03:13.130Z,97626.41
2024-01-16T06:05:40.473Z,97620.44
2024-01-16T06:08:07.865Z,97618.78
2024-01-16T06:10:35.099Z,97617.13
2024-01-16T06:13:02.406Z,97597.44
2024-01-16T06:15:29.675Z,97606.81
2024-01-16T06:17:56.898Z,97617.88
2024-01-16T06:20:26.045Z,97630.03
2024-01-16T06:22:53.365Z,97636.88
2024-01-16T06:25:20.604Z,97652.28
2024-01-16T06:27:47.770Z,97655.66
2024-01-16T06:30:15.327Z,97647.94
2024-01-16T06:32:42.814Z,97645.31
2024-01-16T06:35:10.203Z,97638.53
2024-01-16T06:37:38.156Z,97534.34
2024-01-16T06:40:07.063Z,97623.81
2024-01-16T06:42:34.810Z,97635.09
2024-01-16T06:45:02.354Z,97642.84
2024-01-16T06:47:30.818Z,97644.63
2024-01-16T06:49:58.085Z,97658.34
2024-01-16T06:52:25.884Z,97652.16
2024-01-16T06:54:53.063Z,97635.88
2024-01-16T06:57:20.213Z,97653.88
2024-01-16T06:59:47.860Z,97593.47
2024-01-16T07:02:15.119Z,97646.94
2024-01-16T07:04:42.420Z,97645.22
2024-01-16T07:07:09.641Z,97626.25
2024-01-16T07:09:36.850Z,97641.78
2024-01-16T07:12:05.418Z,97647.75
2024-01-16T07:14:34.107Z,97659.66
2024-01-16T07:17:01.380Z,97638.00
2024-01-16T07:19:28.615Z,97644.72
2024-01-16T07:21:56.219Z,97654.31
2024-01-16T07:24:24.642Z,97666.28
2024-01-16T07:26:52.027Z,97656.00
2024-01-16T07:29:20.058Z,97668.97
2024-01-16T07:31:47.796Z,97650.22
2024-01-16T07:34:21.283Z,97654.56
2024-01-16T07:36:48.981Z,97664.94
2024-01-16T07:39:16.325Z,97653.97
2024-01-16T07:41:43.749Z,97660.81
2024-01-16T07:44:11.052Z,97653.13
2024-01-16T07:46:39.008Z,97606.63
2024-01-16T07:49:07.196Z,97635.97
2024-01-16T07:51:34.518Z,97650.66
2024-01-16T07:54:10.311Z,97659.97
2024-01-16T07:56:39.255Z,97648.91
2024-01-16T07:59:06.728Z,97598.91
2024-01-16T08:01:34.058Z,97655.69
2024-01-16T08:04:01.565Z,97648.97
2024-01-16T08:06:29.296Z,97645.59
2024-01-16T08:08:57.130Z,97645.63
2024-01-16T08:11:25.061Z,97643.84
2024-01-16T08:13:52.421Z,97619.91
2024-01-16T08:16:19.719Z,97650.72
2024-01-16T08:18:47.154Z,97638.06
2024-01-16T08:21:14.529Z,97638.19
2024-01-16T08:23:41.880Z,97635.72
2024-01-16T08:26:09.290Z,97634.00
2024-01-16T08:28:37.115Z,97634.03
2024-01-16T08:31:05.433Z,97631.56
2024-01-16T08:33:37.543Z,97633.31
2024-01-16T08:36:10.837Z,97602.50
2024-01-16T08:38:38.199Z,97618.06
2024-01-16T08:41:07.809Z,97618.94
2024-01-16T08:43:35.367Z,97616.31
2024-01-16T08:46:03.350Z,97613.03
2024-01-16T08:48:31.033Z,97623.16
2024-01-16T08:50:58.615Z,97626.69
2024-01-16T08:53:26.032Z,97633.59
2024-01-16T08:55:53.382Z,97629.25
2024-01-16T08:58:20.927Z,97634.38
2024-01-16T09:00:48.710Z,97628.47
2024-01-16T09:03:16.241Z,97624.03
2024-01-16T09:05:45.089Z,97621.50
2024-01-16T09:08:14.058Z,97613.91
2024-01-16T09:10:41.808Z,97601.75
2024-01-16T09:13:10.448Z,97600.69
2024-01-16T09:15:38.017Z,97593.09
2024-01-16T09:18:06.733Z,97599.19
2024-01-16T09:20:34.800Z,97587.28
2024-01-16T09:23:02.539Z,97598.69
2024-01-16T09:25:31.209Z,97580.84
2024-01-16T09:27:59.068Z,97588.75
2024-01-16T09:30:26.723Z,97584.50
2024-01-16T09:32:54.219Z,97579.47
2024-01-16T09:35:21.682Z,97601.00
2024-01-16T09:37:49.595Z,97596.75
2024-01-16T09:40:17.639Z,97579.63
2024-01-16T09:42:47.041Z,97591.75
2024-01-16T09:45:21.812Z,97592.50
2024-01-16T09:47:52.268Z,97597.63
2024-01-16T09:50:20.968Z,97587.47
2024-01-16T09:52:48.848Z,97563.41
2024-01-16T09:55:17.022Z,97578.78
2024-01-16T09:57:47.666Z,97595.94
2024-01-16T10:00:16.882Z,97520.34
2024-01-16T10:02:44.350Z,97579.53
2024-01-16T10:05:13.338Z,97579.56
2024-01-16T10:07:42.531Z,97578.84
2024-01-16T10:10:12.303Z,97584.00
2024-01-16T10:12:40.962Z,97581.41
2024-01-16T10:15:09.352Z,97574.56
2024-01-16T10:17:38.678Z,97573.56
2024-01-16T10:20:07.728Z,97561.63
2024-01-16T10:22:35.240Z,97575.50
2024-01-16T10:25:07.630Z,97549.03
2024-01-16T10:27:35.782Z,97537.91
2024-01-16T10:30:04.618Z,97563.75
2024-01-16T10:32:39.366Z,97568.84
2024-01-16T10:35:14.910Z,97553.53
2024-01-16T10:37:43.608Z,97561.25
2024-01-16T10:40:11.257Z,97547.47
2024-01-16T10:42:39.728Z,97530.34
2024-01-16T10:45:07.960Z,97538.13
2024-01-16T10:47:38.789Z,97549.22
2024-01-16T10:50:08.571Z,97550.88
2024-01-16T10:52:42.731Z,97549.16
2024-01-16T10:55:24.243Z,97551.66
2024-01-16T10:57:52.924Z,97546.50
2024-01-16T11:00:24.130Z,97530.22
2024-01-16T11:03:07.024Z,97531.09
2024-01-16T11:05:37.277Z,97533.66
2024-01-16T11:08:06.639Z,97522.47
2024-01-16T11:10:37.511Z,97533.38
2024-01-16T11:13:06.469Z,97518.88
2024-01-16T11:15:34.152Z,97519.78
2024-01-16T11:18:03.095Z,97519.78
2024-01-16T11:20:55.129Z,97522.31
2024-01-16T11:23:19.519Z,97515.56
2024-01-16T11:25:47.240Z,97449.56
2024-01-16T11:28:15.775Z,97507.91
2024-01-16T11:31:02.708Z,97513.94
2024-01-16T11:33:32.933Z,97502.88
2024-01-16T11:36:01.487Z,97514.91
2024-01-16T11:38:31.196Z,97508.06
2024-01-16T11:40:58.647Z,97512.34
2024-01-16T11:43:35.465Z,97495.19
2024-01-16T11:46:04.027Z,97510.44
2024-01-16T11:48:31.427Z,97485.63
2024-01-16T11:50:58.877Z,97488.19
2024-01-16T11:53:32.600Z,97500.09
2024-01-16T11:56:31.163Z,97500.06
2024-01-16T11:59:08.775Z,97439.84
2024-01-16T12:01:36.969Z,97499.09
2024-01-16T12:04:08.386Z,97486.31
2024-01-16T12:06:37.518Z,97483.75
2024-01-16T12:09:21.508Z,97488.03
2024-01-16T12:12:02.791Z,97458.72
2024-01-16T12:14:31.232Z,97482.69
2024-01-16T12:17:15.451Z,97480.09
2024-01-16T12:19:44.605Z,97455.22
2024-01-16T12:22:15.455Z,97479.16
2024-01-16T12:24:43.084Z,97457.75
2024-01-16T12:27:11.057Z,97456.91
2024-01-16T12:29:38.424Z,97476.59
2024-01-16T12:32:11.140Z,97459.41
2024-01-16T12:34:50.087Z,97469.78
2024-01-16T12:37:18.507Z,97437.91
2024-01-16T12:39:46.152Z,97461.06
2024-01-16T12:42:14.351Z,97466.13
2024-01-16T12:44:42.046Z,97457.47
2024-01-16T12:47:10.072Z,97466.00
2024-01-16T12:49:44.648Z,97465.22
2024-01-16T12:52:27.613Z,97467.81
2024-01-16T12:55:09.645Z,97463.56
2024-01-16T12:57:38.541Z,97465.97
2024-01-16T13:00:27.273Z,97458.38
2024-01-16T13:02:56.883Z,97453.09
2024-01-16T13:05:24.511Z,97461.56
2024-01-16T13:08:04.685Z,97464.16
2024-01-16T13:10:33.179Z,97444.38
2024-01-16T13:13:20.031Z,97454.00
2024-01-16T13:15:47.804Z,97453.94
2024-01-16T13:18:33.835Z,97443.66
2024-01-16T13:21:02.321Z,97446.97
2024-01-16T13:23:30.089Z,97458.09
2024-01-16T13:25:58.363Z,97440.81
2024-01-16T13:28:26.691Z,97453.78
2024-01-16T13:30:54.575Z,97452.16
2024-01-16T13:33:29.486Z,97386.94
2024-01-16T13:35:56.969Z,97458.16
2024-01-16T13:38:25.462Z,97448.78
2024-01-16T13:40:52.947Z,97434.09
2024-01-16T13:43:22.645Z,97430.69
2024-01-16T13:45:51.118Z,97441.91
2024-01-16T13:48:19.316Z,97440.91
2024-01-16T13:50:47.200Z,97434.16
2024-01-16T13:53:14.727Z,97438.34
2024-01-16T13:55:42.710Z,97381.56
2024-01-16T13:58:10.387Z,97441.63
2024-01-16T14:00:37.721Z,97431.41
2024-01-16T14:03:07.041Z,97431.22
2024-01-16T14:05:34.568Z,97436.44
2024-01-16T14:08:01.953Z,97404.75
2024-01-16T14:10:29.279Z,97437.38
2024-01-16T14:12:56.869Z,97427.06
2024-01-16T14:15:25.435Z,97443.34
2024-01-16T14:17:55.740Z,97441.56
2024-01-16T14:20:27.767Z,97442.41
2024-01-16T14:22:56.493Z,97444.16
2024-01-16T14:25:24.782Z,97424.53
2024-01-16T14:28:05.523Z,97421.31
2024-01-16T14:30:34.733Z,97428.91
2024-01-16T14:33:03.016Z,97416.13
2024-01-16T14:35:30.591Z,97425.72
2024-01-16T14:37:58.608Z,97423.22
2024-01-16T14:40:29.252Z,97419.84
2024-01-16T14:43:00.621Z,97407.81
2024-01-16T14:45:29.142Z,97426.78
2024-01-16T14:47:56.748Z,97419.88
2024-01-16T14:50:25.791Z,97416.53
2024-01-16T14:52:53.866Z,97412.25
2024-01-16T14:55:21.842Z,97395.19
2024-01-16T14:57:54.497Z,97393.50
2024-01-16T15:00:24.383Z,97396.91
2024-01-16T15:02:52.248Z,97377.16
2024-01-16T15:05:21.068Z,97416.63
2024-01-16T15:07:49.938Z,97419.16
2024-01-16T15:10:18.038Z,97385.66
2024-01-16T15:12:48.351Z,97376.28
2024-01-16T15:15:17.014Z,97392.56
2024-01-16T15:17:46.025Z,97404.59
2024-01-16T15:20:13.885Z,97407.22
2024-01-16T15:22:47.258Z,97364.34
2024-01-16T15:25:17.086Z,97366.00
2024-01-16T15:27:46.831Z,97408.06
2024-01-16T15:30:16.800Z,97412.28
2024-01-16T15:32:44.455Z,97398.53
2024-01-16T15:35:12.724Z,97406.34
2024-01-16T15:37:40.557Z,97404.66
2024-01-16T15:40:08.612Z,97404.59
2024-01-16T15:42:40.538Z,97403.81
2024-01-16T15:45:09.292Z,97402.03
2024-01-16T15:47:37.873Z,97398.63
2024-01-16T15:50:06.739Z,97372.97
2024-01-16T15:52:34.407Z,97383.28
2024-01-16T15:55:02.684Z,97396.97
2024-01-16T15:57:31.537Z,97394.47
2024-01-16T15:59:58.908Z,97395.31
2024-01-16T16:02:26.263Z,97393.59
2024-01-16T16:04:55.320Z,97387.56
2024-01-16T16:07:25.006Z,97390.19
2024-01-16T16:09:53.751Z,97397.88
2024-01-16T16:12:21.324Z,97387.72
2024-01-16T16:14:48.827Z,97389.38
2024-01-16T16:17:16.309Z,97372.28
2024-01-16T16:19:43.891Z,97344.72
2024-01-16T16:22:11.393Z,97389.44
2024-01-16T16:24:39.153Z,97384.31
2024-01-16T16:27:26.950Z,97381.78
2024-01-16T16:29:57.788Z,97362.03
2024-01-16T16:32:26.003Z,97372.31
2024-01-16T16:34:54.726Z,97372.31
2024-01-16T16:37:22.778Z,97371.38
2024-01-16T16:39:50.349Z,97389.34
2024-01-16T16:42:20.011Z,97385.91
2024-01-16T16:44:48.273Z,97373.94
2024-01-16T16:47:17.070Z,97295.03
2024-01-16T16:49:44.834Z,97379.97
2024-01-16T16:52:12.330Z,97375.69
2024-01-16T16:54:39.800Z,97355.97
2024-01-16T16:57:07.300Z,97351.78
2024-01-16T16:59:34.805Z,97362.91
2024-01-16T17:02:02.205Z,97351.81
2024-01-16T17:04:29.720Z,97368.94
2024-01-16T17:06:58.167Z,97340.63
2024-01-16T17:09:26.179Z,97356.13
2024-01-16T17:11:53.602Z,97355.25
2024-01-16T17:14:20.913Z,97353.56
2024-01-16T17:16:48.693Z,97351.03
2024-01-16T17:19:16.380Z,97340.69
2024-01-16T17:21:44.467Z,97349.19
2024-01-16T17:24:11.971Z,97350.84
2024-01-16T17:26:40.880Z,97346.50
2024-01-16T17:29:08.485Z,97344.78
2024-01-16T17:31:38.218Z,97339.59
2024-01-16T17:34:06.954Z,97330.25
2024-01-16T17:36:34.520Z,97338.94
2024-01-16T17:39:02.266Z,97327.84
2024-01-16T17:41:31.166Z,97345.03
2024-01-16T17:43:59.425Z,97353.56
2024-01-16T17:46:26.798Z,97345.03
2024-01-16T17:48:55.808Z,97317.56
2024-01-16T17:51:25.529Z,97344.13
2024-01-16T17:53:54.649Z,97341.56
2024-01-16T17:56:25.163Z,97347.59
2024-01-16T17:58:53.715Z,97347.59
2024-01-16T18:01:21.439Z,97352.72
2024-01-16T18:03:49.250Z,97354.41
2024-01-16T18:06:23.484Z,97350.94
2024-01-16T18:08:51.276Z,97326.84
2024-01-16T18:11:18.764Z,97351.69
2024-01-16T18:13:46.652Z,97329.38
2024-01-16T18:16:15.220Z,97338.75
2024-01-16T18:18:43.010Z,97349.91
2024-01-16T18:21:13.905Z,97315.63
2024-01-16T18:23:44.491Z,97356.78
2024-01-16T18:26:13.632Z,97361.91
2024-01-16T18:28:41.567Z,97361.00
2024-01-16T18:31:10.561Z,97360.88
2024-01-16T18:33:40.269Z,97353.22
2024-01-16T18:36:08.156Z,97357.50
2024-01-16T18:38:35.680Z,97361.81
2024-01-16T18:41:05.467Z,97358.41
2024-01-16T18:43:33.399Z,97347.25
2024-01-16T18:46:00.735Z,97358.41
2024-01-16T18:48:30.482Z,97361.00
2024-01-16T18:50:58.129Z,97339.56
2024-01-16T18:53:26.591Z,97366.16
2024-01-16T18:55:54.127Z,97372.19
2024-01-16T18:58:24.621Z,97359.34
2024-01-16T19:00:57.831Z,97384.88
2024-01-16T19:03:25.525Z,97359.19
2024-01-16T19:05:57.900Z,97374.59
2024-01-16T19:08:25.710Z,97307.56
2024-01-16T19:10:55.156Z,97378.72
2024-01-16T19:13:25.627Z,97368.41
2024-01-16T19:15:53.751Z,97381.22
2024-01-16T19:18:21.854Z,97378.66
2024-01-16T19:20:49.676Z,97386.31
2024-01-16T19:23:17.985Z,97393.03
2024-01-16T19:25:47.205Z,97392.25
2024-01-16T19:28:14.673Z,97399.94
2024-01-16T19:30:42.148Z,97409.22
2024-01-16T19:33:09.790Z,97403.25
2024-01-16T19:35:38.114Z,97414.38
2024-01-16T19:38:05.870Z,97413.47
2024-01-16T19:40:33.721Z,97412.69
2024-01-16T19:43:06.512Z,97415.97
2024-01-16T19:45:34.309Z,97415.13
2024-01-16T19:48:04.575Z,97416.75
2024-01-16T19:50:33.536Z,97425.25
2024-01-16T19:53:04.065Z,97423.44
2024-01-16T19:55:32.069Z,97443.06
2024-01-16T19:58:01.428Z,97443.97
2024-01-16T20:00:29.197Z,97434.41
2024-01-16T20:02:57.170Z,97458.38
2024-01-16T20:05:24.685Z,97417.16
2024-01-16T20:07:52.272Z,97451.50
2024-01-16T20:10:19.652Z,97442.06
2024-01-16T20:12:49.897Z,97452.25
2024-01-16T20:15:23.036Z,97473.66
2024-01-16T20:17:51.927Z,97461.63
2024-01-16T20:20:20.191Z,97453.88
2024-01-16T20:22:48.435Z,97459.09
2024-01-16T20:25:16.101Z,97478.75
2024-01-16T20:27:44.456Z,97462.41
2024-01-16T20:30:14.222Z,97455.53
2024-01-16T20:32:44.705Z,97482.13
2024-01-16T20:35:14.344Z,97487.22
2024-01-16T20:37:42.625Z,97488.88
2024-01-16T20:40:10.950Z,97442.44
2024-01-16T20:42:38.589Z,97499.88
2024-01-16T20:45:10.712Z,97504.16
2024-01-16T20:47:42.242Z,97493.84
2024-01-16T20:50:11.231Z,97504.13
2024-01-16T20:52:39.086Z,97506.56
2024-01-16T20:55:08.587Z,97494.53
2024-01-16T20:57:36.803Z,97497.22
2024-01-16T21:00:14.187Z,97507.53
2024-01-16T21:02:42.515Z,97485.31
2024-01-16T21:05:09.966Z,97515.25
2024-01-16T21:07:37.546Z,97516.97
2024-01-16T21:10:05.573Z,97513.56
2024-01-16T21:12:33.399Z,97517.81
2024-01-16T21:15:01.040Z,97515.25
2024-01-16T21:17:29.630Z,97509.16
2024-01-16T21:19:56.997Z,97521.06
2024-01-16T21:22:30.835Z,97521.81
2024-01-16T21:25:03.499Z,97531.06
2024-01-16T21:27:30.747Z,97527.75
2024-01-16T21:29:58.161Z,97512.28
2024-01-16T21:32:25.960Z,97520.06
2024-01-16T21:34:53.365Z,97523.50
2024-01-16T21:37:20.622Z,97541.34
2024-01-16T21:39:47.867Z,97536.25
2024-01-16T21:42:15.334Z,97525.19
2024-01-16T21:44:42.635Z,97540.63
2024-01-16T21:47:10.374Z,97521.59
2024-01-16T21:49:37.666Z,97543.09
2024-01-16T21:52:05.147Z,97529.41
2024-01-16T21:54:33.926Z,97550.75
2024-01-16T21:57:01.305Z,97544.78
2024-01-16T21:59:28.607Z,97495.75
2024-01-16T22:01:55.863Z,97512.00
2024-01-16T22:04:23.092Z,97554.09
2024-01-16T22:06:50.391Z,97563.50
2024-01-16T22:09:22.280Z,97569.44
2024-01-16T22:11:50.084Z,97561.59
2024-01-16T22:14:17.421Z,97569.06
2024-01-16T22:16:44.655Z,97575.94
2024-01-16T22:19:11.891Z,97588.72
2024-01-16T22:21:39.143Z,97608.19
2024-01-16T22:24:06.701Z,97610.28
2024-01-16T22:26:34.246Z,97627.78
2024-01-16T22:29:01.609Z,97624.84
2024-01-16T22:31:28.881Z,97553.22
2024-01-16T22:33:56.284Z,97637.75
2024-01-16T22:36:23.859Z,97622.94
2024-01-16T22:38:51.145Z,97640.88
2024-01-16T22:41:18.347Z,97643.34
2024-01-16T22:43:46.479Z,97625.59
2024-01-16T22:46:13.681Z,97633.34
2024-01-16T22:48:41.639Z,97646.38
2024-01-16T22:51:15.370Z,97666.78
2024-01-16T22:53:44.004Z,97665.66
2024-01-16T22:56:11.252Z,97669.69
2024-01-16T22:58:43.305Z,97659.13
2024-01-16T23:01:10.547Z,97673.56
2024-01-16T23:03:37.993Z,97667.50
2024-01-16T23:08:34.242Z,97686.56
2024-01-16T23:11:01.552Z,97692.31
2024-01-16T23:13:28.970Z,97691.44
2024-01-16T23:15:56.166Z,97697.31
2024-01-16T23:18:23.531Z,97698.03
2024-01-16T23:20:50.844Z,97689.97
2024-01-16T23:23:19.097Z,97717.28
2024-01-16T23:25:46.980Z,97718.06
2024-01-16T23:28:14.385Z,97722.00
2024-01-16T23:30:41.680Z,97730.22
2024-01-16T23:33:09.424Z,97724.00
2024-01-16T23:35:36.825Z,97726.53
2024-01-16T23:38:07.197Z,97738.13
2024-01-16T23:40:34.448Z,97742.59
2024-01-16T23:43:01.883Z,97705.38
2024-01-16T23:45:33.711Z,97742.44
2024-01-16T23:48:01.859Z,97749.13
2024-01-16T23:50:30.339Z,97748.94
2024-01-16T23:52:58.708Z,97725.41
2024-01-16T23:55:26.225Z,97731.91
2024-01-16T23:57:53.487Z,97742.97
